createdAt,value
2019-03-01T00:02:12.352Z,74.67
2019-03-01T00:05:20.522Z,76.60
2019-03-01T00:08:31.284Z,67.20
2019-03-01T00:11:23.224Z,66.75
2019-03-01T00:14:21.545Z,74.58
2019-03-01T00:17:33.297Z,70.40
2019-03-01T00:20:47.752Z,79.97
2019-03-01T00:26:59.469Z,68.40
2019-03-01T00:30:02.346Z,60.75
2019-03-01T00:32:54.969Z,70.12
2019-03-01T00:36:00.733Z,62.70
2019-03-01T00:39:07.164Z,72.20
2019-03-01T00:41:48.125Z,58.68
2019-03-01T00:44:31.196Z,73.65
2019-03-01T00:47:13.672Z,61.83
2019-03-01T00:49:55.996Z,68.78
2019-03-01T00:52:32.435Z,65.15
2019-03-01T00:55:08.674Z,68.65
2019-03-01T00:57:51.448Z,58.83
2019-03-01T01:00:47.083Z,64.93
2019-03-01T01:03:22.886Z,74.42
2019-03-01T01:06:05.853Z,74.40
2019-03-01T01:08:41.431Z,68.30
2019-03-01T01:11:17.517Z,62.43
2019-03-01T01:13:59.998Z,61.40
2019-03-01T01:16:41.709Z,62.80
2019-03-01T01:19:24.811Z,65.70
2019-03-01T01:22:07.377Z,74.47
2019-03-01T01:24:50.186Z,73.97
2019-03-01T01:27:33.252Z,64.95
2019-03-01T01:30:08.956Z,65.20
2019-03-01T01:32:44.627Z,62.20
2019-03-01T01:35:27.148Z,65.90
2019-03-01T01:38:10.509Z,58.30
2019-03-01T01:40:59.926Z,59.53
2019-03-01T01:43:41.832Z,60.58
2019-03-01T01:46:24.840Z,63.23
2019-03-01T01:49:14.085Z,60.65
2019-03-01T01:51:56.591Z,57.78
2019-03-01T01:54:39.706Z,57.05
2019-03-01T01:57:21.513Z,63.42
2019-03-01T01:59:57.125Z,57.62
2019-03-01T02:02:40.183Z,56.85
2019-03-01T02:05:16.363Z,58.92
2019-03-01T02:07:57.987Z,48.20
2019-03-01T02:10:40.370Z,51.30
2019-03-01T02:13:28.890Z,56.50
2019-03-01T02:16:11.205Z,55.98
2019-03-01T02:18:46.732Z,55.35
2019-03-01T02:21:29.756Z,49.10
2019-03-01T02:24:05.216Z,51.77
2019-03-01T02:26:47.800Z,52.33
2019-03-01T02:29:37.422Z,59.45
2019-03-01T02:32:26.741Z,55.33
2019-03-01T02:35:02.660Z,50.80
2019-03-01T02:37:45.568Z,53.25
2019-03-01T02:40:34.460Z,51.55
2019-03-01T02:43:10.001Z,54.65
2019-03-01T02:45:52.542Z,48.95
2019-03-01T02:48:34.910Z,34.00
2019-03-01T02:51:10.937Z,51.48
2019-03-01T02:53:46.889Z,43.02
2019-03-01T02:56:29.351Z,49.50
2019-03-01T02:59:05.685Z,51.23
2019-03-01T03:01:48.360Z,51.60
2019-03-01T03:04:24.117Z,44.97
2019-03-01T03:07:08.211Z,47.93
2019-03-01T03:09:57.847Z,48.13
2019-03-01T03:12:40.187Z,46.95
2019-03-01T03:15:29.661Z,43.45
2019-03-01T03:18:12.251Z,49.83
2019-03-01T03:20:48.431Z,45.90
2019-03-01T03:23:30.825Z,53.58
2019-03-01T03:26:07.180Z,39.90
2019-03-01T03:28:48.884Z,47.00
2019-03-01T03:31:24.926Z,43.38
2019-03-01T03:34:07.287Z,49.70
2019-03-01T03:36:50.079Z,43.55
2019-03-01T03:39:31.832Z,45.10
2019-03-01T03:42:14.455Z,55.20
2019-03-01T03:44:50.886Z,45.35
2019-03-01T03:47:32.981Z,48.80
2019-03-01T03:50:25.713Z,48.90
2019-03-01T03:53:08.051Z,36.60
2019-03-01T03:55:51.061Z,49.42
2019-03-01T03:58:40.264Z,41.60
2019-03-01T04:01:29.757Z,47.60
2019-03-01T04:04:19.126Z,45.40
2019-03-01T04:06:54.967Z,50.00
2019-03-01T04:09:37.956Z,43.48
2019-03-01T04:12:20.861Z,42.35
2019-03-01T04:15:09.670Z,50.63
2019-03-01T04:17:58.428Z,48.70
2019-03-01T04:20:48.221Z,48.40
2019-03-01T04:23:37.795Z,45.65
2019-03-01T04:26:27.570Z,52.55
2019-03-01T04:29:09.206Z,55.10
2019-03-01T04:31:51.672Z,54.80
2019-03-01T04:34:40.420Z,45.43
2019-03-01T04:37:29.418Z,43.58
2019-03-01T04:40:21.019Z,49.88
2019-03-01T04:43:09.697Z,52.83
2019-03-01T04:45:59.453Z,44.15
2019-03-01T04:48:48.905Z,42.00
2019-03-01T04:51:40.328Z,39.78
2019-03-01T04:54:22.260Z,40.92
2019-03-01T04:57:11.024Z,31.47
2019-03-01T04:59:54.513Z,44.38
2019-03-01T05:02:24.023Z,43.40
2019-03-01T05:05:13.660Z,45.83
2019-03-01T05:07:49.961Z,44.08
2019-03-01T05:10:32.854Z,46.15
2019-03-01T05:13:15.317Z,49.40
2019-03-01T05:15:51.046Z,53.33
2019-03-01T05:18:34.214Z,47.00
2019-03-01T05:21:17.290Z,49.73
2019-03-01T05:23:53.096Z,33.45
2019-03-01T05:26:35.004Z,54.08
2019-03-01T05:29:17.829Z,51.02
2019-03-01T05:31:54.081Z,49.90
2019-03-01T05:34:36.201Z,43.08
2019-03-01T05:37:19.450Z,43.60
2019-03-01T05:40:09.043Z,46.55
2019-03-01T05:42:45.598Z,54.00
2019-03-01T05:45:33.982Z,53.95
2019-03-01T05:48:16.479Z,47.20
2019-03-01T05:50:52.348Z,45.28
2019-03-01T05:53:35.302Z,49.70
2019-03-01T05:56:18.075Z,40.85
2019-03-01T05:58:54.213Z,38.50
2019-03-01T06:01:42.176Z,48.35
2019-03-01T06:04:45.176Z,51.20
2019-03-01T06:07:51.825Z,47.33
2019-03-01T06:10:43.712Z,42.08
2019-03-01T06:13:58.154Z,41.42
2019-03-01T06:19:57.064Z,38.90
2019-03-01T06:22:50.075Z,36.17
2019-03-01T06:25:34.192Z,37.17
2019-03-01T06:28:31.149Z,34.88
2019-03-01T06:31:50.100Z,41.58
2019-03-01T06:34:49.535Z,39.73
2019-03-01T06:37:51.690Z,34.43
2019-03-01T06:40:58.124Z,38.23
2019-03-01T06:44:09.397Z,32.23
2019-03-01T06:47:21.683Z,36.85
2019-03-01T06:50:22.406Z,31.17
2019-03-01T06:52:52.065Z,36.88
2019-03-01T06:55:42.053Z,37.40
2019-03-01T06:58:32.479Z,27.13
2019-03-01T07:01:10.213Z,30.20
2019-03-01T07:03:54.878Z,33.42
2019-03-01T07:06:37.665Z,34.98
2019-03-01T07:09:21.438Z,36.80
2019-03-01T07:11:57.059Z,31.93
2019-03-01T07:14:40.235Z,33.98
2019-03-01T07:17:15.944Z,31.85
2019-03-01T07:19:52.067Z,32.63
2019-03-01T07:22:41.386Z,34.60
2019-03-01T07:25:30.485Z,31.90
2019-03-01T07:28:12.899Z,35.88
2019-03-01T07:30:55.346Z,36.58
2019-03-01T07:33:37.965Z,38.73
2019-03-01T07:36:14.175Z,42.75
2019-03-01T07:38:55.920Z,46.98
2019-03-01T07:41:32.077Z,41.37
2019-03-01T07:44:15.073Z,42.17
2019-03-01T07:46:59.176Z,39.70
2019-03-01T07:49:35.722Z,38.50
2019-03-01T07:52:18.142Z,44.25
2019-03-01T07:54:54.715Z,40.28
2019-03-01T07:57:31.573Z,40.33
2019-03-01T08:00:14.909Z,39.88
2019-03-01T08:02:57.012Z,41.25
2019-03-01T08:05:46.764Z,48.52
2019-03-01T08:08:29.311Z,46.13
2019-03-01T08:11:05.890Z,39.67
2019-03-01T08:13:49.447Z,42.58
2019-03-01T08:16:26.741Z,40.90
2019-03-01T08:19:22.610Z,26.20
2019-03-01T08:22:01.230Z,27.15
2019-03-01T08:24:46.664Z,21.77
2019-03-01T08:27:27.844Z,23.22
2019-03-01T08:30:06.971Z,26.52
2019-03-01T08:32:47.954Z,23.38
2019-03-01T08:35:28.325Z,25.68
2019-03-01T08:38:11.236Z,23.98
2019-03-01T08:40:49.941Z,23.75
2019-03-01T08:43:31.284Z,16.60
2019-03-01T08:46:20.615Z,17.30
2019-03-01T08:49:06.702Z,14.68
2019-03-01T08:51:47.885Z,16.60
2019-03-01T08:54:31.071Z,17.32
2019-03-01T08:57:07.103Z,14.63
2019-03-01T08:59:56.638Z,20.00
2019-03-01T09:02:40.141Z,17.77
2019-03-01T09:05:19.327Z,13.70
2019-03-01T09:08:01.798Z,13.08
2019-03-01T09:10:38.465Z,15.45
2019-03-01T09:13:21.489Z,14.05
2019-03-01T09:16:03.588Z,11.33
2019-03-01T09:18:40.109Z,13.83
2019-03-01T09:21:23.017Z,9.90
2019-03-01T09:23:55.005Z,11.10
2019-03-01T09:26:30.404Z,16.52
2019-03-01T09:29:06.291Z,13.00
2019-03-01T09:31:50.775Z,12.28
2019-03-01T09:34:40.406Z,12.68
2019-03-01T09:37:32.505Z,11.73
2019-03-01T09:40:14.987Z,8.85
2019-03-01T09:42:52.315Z,14.93
2019-03-01T09:45:36.584Z,6.95
2019-03-01T09:48:26.282Z,10.25
2019-03-01T09:51:10.679Z,8.15
2019-03-01T09:53:46.107Z,10.20
2019-03-01T09:56:28.724Z,7.50
2019-03-01T09:59:10.830Z,7.37
2019-03-01T10:01:53.647Z,10.95
2019-03-01T10:04:29.495Z,8.20
2019-03-01T10:07:25.549Z,7.92
2019-03-01T10:10:14.964Z,7.65
2019-03-01T10:13:03.985Z,15.48
2019-03-01T10:15:39.531Z,14.05
2019-03-01T10:18:22.154Z,8.73
2019-03-01T10:21:10.829Z,38.17
2019-03-01T10:23:53.384Z,26.82
2019-03-01T10:26:36.984Z,21.95
2019-03-01T10:29:26.328Z,14.30
2019-03-01T10:32:02.513Z,61.08
2019-03-01T10:34:45.065Z,16.30
2019-03-01T10:37:28.322Z,18.90
2019-03-01T10:40:04.628Z,17.05
2019-03-01T10:42:53.368Z,17.05
2019-03-01T10:45:44.618Z,29.12
2019-03-01T10:48:27.486Z,13.35
2019-03-01T10:51:16.444Z,8.83
2019-03-01T10:54:05.841Z,9.10
2019-03-01T10:56:49.061Z,9.33
2019-03-01T10:59:25.135Z,11.90
2019-03-01T11:02:07.392Z,9.40
2019-03-01T11:04:43.772Z,7.35
2019-03-01T11:07:27.088Z,7.08
2019-03-01T11:10:02.944Z,16.35
2019-03-01T11:12:45.810Z,11.40
2019-03-01T11:15:35.040Z,24.77
2019-03-01T11:18:17.533Z,14.63
2019-03-01T11:21:00.127Z,16.12
2019-03-01T11:23:35.907Z,24.40
2019-03-01T11:26:18.570Z,18.50
2019-03-01T11:29:01.184Z,13.53
2019-03-01T11:31:37.108Z,19.42
2019-03-01T11:34:26.747Z,18.27
2019-03-01T11:37:09.485Z,19.35
2019-03-01T11:39:52.055Z,19.48
2019-03-01T11:42:41.410Z,11.05
2019-03-01T11:45:24.809Z,16.75
2019-03-01T11:48:07.251Z,26.02
2019-03-01T11:50:49.837Z,18.62
2019-03-01T11:53:25.357Z,41.83
2019-03-01T11:56:07.270Z,19.07
2019-03-01T11:58:43.726Z,53.60
2019-03-01T12:01:25.581Z,11.00
2019-03-01T12:04:01.927Z,21.50
2019-03-01T12:06:44.864Z,57.00
2019-03-01T12:09:21.161Z,14.60
2019-03-01T12:12:03.948Z,19.62
2019-03-01T12:14:40.057Z,61.28
2019-03-01T12:17:22.968Z,30.80
2019-03-01T12:20:05.978Z,20.67
2019-03-01T12:22:47.860Z,23.90
2019-03-01T12:25:30.797Z,23.07
2019-03-01T12:28:13.531Z,30.23
2019-03-01T12:30:55.901Z,20.97
2019-03-01T12:33:38.608Z,19.20
2019-03-01T12:36:20.698Z,9.85
2019-03-01T12:39:03.678Z,15.43
2019-03-01T12:41:53.045Z,11.18
2019-03-01T12:44:35.253Z,15.00
2019-03-01T12:47:17.969Z,14.13
2019-03-01T12:50:06.978Z,12.73
2019-03-01T12:52:49.701Z,14.07
2019-03-01T12:55:35.030Z,14.07
2019-03-01T12:58:19.619Z,14.50
2019-03-01T13:00:55.777Z,16.80
2019-03-01T13:03:40.635Z,8.65
2019-03-01T13:06:26.508Z,10.88
2019-03-01T13:09:04.526Z,7.12
2019-03-01T13:11:53.897Z,12.78
2019-03-01T13:14:36.711Z,14.30
2019-03-01T13:19:57.586Z,17.85
2019-03-01T13:22:40.635Z,12.30
2019-03-01T13:25:25.887Z,13.97
2019-03-01T13:28:08.585Z,22.20
2019-03-01T13:30:57.753Z,13.73
2019-03-01T13:33:34.784Z,11.35
2019-03-01T13:36:13.263Z,11.63
2019-03-01T13:38:42.668Z,14.45
2019-03-01T13:41:18.955Z,13.05
2019-03-01T13:43:55.559Z,16.32
2019-03-01T13:46:33.456Z,12.10
2019-03-01T13:49:15.537Z,13.75
2019-03-01T13:51:58.328Z,17.05
2019-03-01T13:54:47.927Z,14.95
2019-03-01T13:57:38.181Z,19.37
2019-03-01T14:00:32.981Z,11.57
2019-03-01T14:03:08.566Z,13.98
2019-03-01T14:05:54.546Z,16.60
2019-03-01T14:08:37.485Z,16.07
2019-03-01T14:11:15.176Z,20.97
2019-03-01T14:13:59.657Z,20.57
2019-03-01T14:16:35.439Z,21.52
2019-03-01T14:19:18.034Z,22.80
2019-03-01T14:22:01.496Z,29.70
2019-03-01T14:24:51.304Z,24.30
2019-03-01T14:27:33.936Z,38.88
2019-03-01T14:30:16.452Z,26.05
2019-03-01T14:32:46.261Z,44.85
2019-03-01T14:35:25.832Z,37.33
2019-03-01T14:38:00.633Z,32.58
2019-03-01T14:40:43.101Z,17.87
2019-03-01T14:43:26.123Z,38.50
2019-03-01T14:46:09.990Z,21.65
2019-03-01T14:48:52.431Z,33.90
2019-03-01T14:51:28.348Z,45.10
2019-03-01T14:54:18.109Z,17.82
2019-03-01T14:57:09.909Z,20.68
2019-03-01T14:59:59.569Z,30.68
2019-03-01T15:02:52.525Z,24.02
2019-03-01T15:05:29.101Z,21.62
2019-03-01T15:08:12.623Z,37.38
2019-03-01T15:10:48.512Z,26.80
2019-03-01T15:13:34.747Z,17.55
2019-03-01T15:16:22.318Z,14.58
2019-03-01T15:19:08.171Z,26.82
2019-03-01T15:21:42.258Z,22.37
2019-03-01T15:24:24.263Z,42.05
2019-03-01T15:27:04.257Z,17.98
2019-03-01T15:29:44.804Z,21.57
2019-03-01T15:32:20.769Z,17.02
2019-03-01T15:35:04.545Z,27.80
2019-03-01T15:37:48.750Z,34.35
2019-03-01T15:40:27.817Z,18.25
2019-03-01T15:43:17.326Z,28.90
2019-03-01T15:46:00.797Z,15.05
2019-03-01T15:48:43.393Z,26.57
2019-03-01T15:51:19.212Z,20.97
2019-03-01T15:54:02.003Z,19.82
2019-03-01T15:56:44.677Z,26.80
2019-03-01T15:59:27.675Z,25.23
2019-03-01T16:02:05.132Z,16.77
2019-03-01T16:04:55.293Z,21.05
2019-03-01T16:07:44.850Z,34.10
2019-03-01T16:10:36.185Z,35.92
2019-03-01T16:13:18.450Z,22.60
2019-03-01T16:15:54.455Z,29.32
2019-03-01T16:18:38.998Z,23.10
2019-03-01T16:21:21.748Z,18.60
2019-03-01T16:24:11.472Z,26.52
2019-03-01T16:27:00.732Z,27.87
2019-03-01T16:29:38.772Z,23.62
2019-03-01T16:32:21.954Z,32.48
2019-03-01T16:35:05.154Z,26.30
2019-03-01T16:37:41.557Z,24.60
2019-03-01T16:40:18.014Z,23.98
2019-03-01T16:42:54.676Z,20.90
2019-03-01T16:45:30.486Z,21.07
2019-03-01T16:48:13.589Z,22.55
2019-03-01T16:51:03.597Z,24.98
2019-03-01T16:53:46.321Z,31.10
2019-03-01T16:56:28.691Z,33.17
2019-03-01T16:59:11.537Z,40.67
2019-03-01T17:01:48.113Z,37.17
2019-03-01T17:04:37.798Z,22.93
2019-03-01T17:07:13.283Z,29.85
2019-03-01T17:09:55.831Z,45.78
2019-03-01T17:12:31.559Z,33.73
2019-03-01T17:15:14.667Z,48.68
2019-03-01T17:17:51.791Z,62.75
2019-03-01T17:20:37.452Z,34.15
2019-03-01T17:23:11.485Z,28.92
2019-03-01T17:26:00.192Z,54.23
2019-03-01T17:28:43.486Z,60.58
2019-03-01T17:31:19.551Z,66.17
2019-03-01T17:34:04.439Z,44.27
2019-03-01T17:36:40.494Z,28.40
2019-03-01T17:39:25.189Z,28.02
2019-03-01T17:42:01.785Z,35.65
2019-03-01T17:44:37.597Z,38.28
2019-03-01T17:47:19.855Z,34.95
2019-03-01T17:50:02.010Z,44.73
2019-03-01T17:52:38.701Z,41.08
2019-03-01T17:55:24.793Z,33.67
2019-03-01T17:58:14.963Z,33.25
2019-03-01T18:00:50.939Z,30.88
2019-03-01T18:03:33.231Z,75.83
2019-03-01T18:06:13.028Z,27.80
2019-03-01T18:08:47.908Z,27.20
2019-03-01T18:11:26.127Z,31.73
2019-03-01T18:14:08.572Z,25.45
2019-03-01T18:16:44.514Z,23.55
2019-03-01T18:19:27.701Z,29.82
2019-03-01T18:22:04.213Z,49.50
2019-03-01T18:24:40.649Z,36.88
2019-03-01T18:27:17.998Z,36.20
2019-03-01T18:30:01.636Z,27.07
2019-03-01T18:32:41.731Z,32.70
2019-03-01T18:35:29.015Z,38.78
2019-03-01T18:38:14.510Z,39.80
2019-03-01T18:40:43.974Z,46.53
2019-03-01T18:43:27.020Z,67.20
2019-03-01T18:46:04.385Z,79.53
2019-03-01T18:48:47.783Z,118.65
2019-03-01T18:51:24.553Z,172.02
2019-03-01T18:54:13.924Z,185.12
2019-03-01T18:57:04.489Z,173.87
2019-03-01T18:59:56.416Z,70.60
2019-03-01T19:02:44.944Z,153.15
2019-03-01T19:05:27.847Z,71.10
2019-03-01T19:08:11.431Z,32.63
2019-03-01T19:11:02.907Z,41.02
2019-03-01T19:13:55.108Z,45.83
2019-03-01T19:16:44.903Z,51.40
2019-03-01T19:19:24.438Z,45.28
2019-03-01T19:22:05.492Z,77.50
2019-03-01T19:24:43.275Z,180.52
2019-03-01T19:27:26.862Z,301.10
2019-03-01T19:30:15.774Z,134.18
2019-03-01T19:32:58.970Z,88.52
2019-03-01T19:38:11.644Z,93.75
2019-03-01T19:40:54.225Z,127.90
2019-03-01T19:43:30.299Z,84.22
2019-03-01T19:46:12.672Z,108.15
2019-03-01T19:48:57.722Z,100.27
2019-03-01T19:54:17.725Z,126.27
2019-03-01T19:56:53.474Z,78.33
2019-03-01T19:59:35.969Z,145.02
2019-03-01T20:02:05.876Z,78.62
2019-03-01T20:04:48.192Z,66.85
2019-03-01T20:07:31.671Z,81.63
2019-03-01T20:10:07.819Z,124.90
2019-03-01T20:12:50.634Z,87.20
2019-03-01T20:15:33.068Z,83.03
2019-03-01T20:18:15.737Z,40.80
2019-03-01T20:20:58.279Z,78.10
2019-03-01T20:23:34.283Z,70.08
2019-03-01T20:26:16.849Z,38.80
2019-03-01T20:29:06.172Z,33.55
2019-03-01T20:31:42.249Z,56.85
2019-03-01T20:34:25.124Z,35.58
2019-03-01T20:37:15.547Z,40.55
2019-03-01T20:39:57.639Z,33.25
2019-03-01T20:42:33.681Z,31.20
2019-03-01T20:45:25.962Z,42.13
2019-03-01T20:48:08.258Z,31.48
2019-03-01T20:50:58.126Z,40.50
2019-03-01T20:53:49.483Z,40.30
2019-03-01T20:56:31.913Z,21.97
2019-03-01T20:59:07.707Z,22.58
2019-03-01T21:01:49.474Z,13.60
2019-03-01T21:04:32.648Z,15.10
2019-03-01T21:07:08.686Z,16.55
2019-03-01T21:09:53.554Z,23.95
2019-03-01T21:12:29.237Z,32.73
2019-03-01T21:15:14.069Z,27.75
2019-03-01T21:17:58.517Z,15.58
2019-03-01T21:20:50.482Z,16.42
2019-03-01T21:23:25.616Z,45.10
2019-03-01T21:26:12.126Z,42.03
2019-03-01T21:28:53.956Z,87.70
2019-03-01T21:31:37.138Z,77.17
2019-03-01T21:34:19.866Z,44.42
2019-03-01T21:37:03.992Z,53.50
2019-03-01T21:39:46.822Z,45.45
2019-03-01T21:42:29.734Z,42.90
2019-03-01T21:45:05.818Z,17.87
2019-03-01T21:47:44.650Z,18.27
2019-03-01T21:50:26.299Z,19.17
2019-03-01T21:53:08.451Z,18.00
2019-03-01T21:55:50.992Z,27.32
2019-03-01T21:58:42.013Z,58.55
2019-03-01T22:01:31.860Z,20.77
2019-03-01T22:04:07.453Z,24.75
2019-03-01T22:06:50.474Z,25.00
2019-03-01T22:09:33.230Z,23.15
2019-03-01T22:12:09.413Z,28.23
2019-03-01T22:14:52.005Z,22.20
2019-03-01T22:17:28.346Z,25.27
2019-03-01T22:20:13.793Z,28.73
2019-03-01T22:23:03.145Z,31.73
2019-03-01T22:25:45.208Z,39.90
2019-03-01T22:28:21.607Z,36.15
2019-03-01T22:31:03.445Z,35.73
2019-03-01T22:33:39.592Z,32.25
2019-03-01T22:36:22.216Z,35.73
2019-03-01T22:39:04.488Z,34.15
2019-03-01T22:41:53.389Z,26.68
2019-03-01T22:44:43.782Z,20.17
2019-03-01T22:47:26.915Z,20.48
2019-03-01T22:50:04.041Z,14.40
2019-03-01T22:52:46.816Z,29.15
2019-03-01T22:55:26.935Z,17.17
2019-03-01T22:58:03.398Z,26.23
2019-03-01T23:00:57.548Z,19.87
2019-03-01T23:03:38.557Z,20.97
2019-03-01T23:06:21.070Z,17.75
2019-03-01T23:08:56.808Z,21.17
2019-03-01T23:11:39.583Z,16.37
2019-03-01T23:14:15.135Z,21.40
2019-03-01T23:16:57.064Z,19.27
2019-03-01T23:19:33.172Z,22.00
2019-03-01T23:22:11.039Z,16.90
2019-03-01T23:25:00.779Z,15.68
2019-03-01T23:27:42.870Z,15.48
2019-03-01T23:30:20.168Z,15.43
2019-03-01T23:33:09.014Z,22.70
2019-03-01T23:35:44.716Z,19.35
2019-03-01T23:38:27.253Z,13.62
2019-03-01T23:41:16.551Z,15.80
2019-03-01T23:44:02.805Z,17.67
2019-03-01T23:46:43.711Z,15.18
2019-03-01T23:49:26.067Z,13.70
2019-03-01T23:52:15.191Z,14.33
2019-03-01T23:54:51.777Z,14.10
2019-03-01T23:57:37.904Z,14.78
